createdAt,value
2023-03-06T00:00:23.094Z,3.04
2023-03-06T00:02:50.187Z,2.93
2023-03-06T00:05:16.970Z,3.10
2023-03-06T00:07:44.575Z,3.18
2023-03-06T00:10:21.914Z,3.07
2023-03-06T00:12:48.561Z,3.04
2023-03-06T00:15:15.120Z,3.26
2023-03-06T00:17:41.694Z,3.31
2023-03-06T00:20:10.945Z,3.22
2023-03-06T00:22:37.861Z,3.36
2023-03-06T00:25:06.054Z,3.34
2023-03-06T00:27:33.297Z,3.67
2023-03-06T00:30:00.945Z,3.52
2023-03-06T00:32:29.061Z,3.56
2023-03-06T00:34:55.933Z,3.74
2023-03-06T00:37:24.430Z,3.78
2023-03-06T00:39:51.079Z,3.80
2023-03-06T00:42:19.348Z,3.89
2023-03-06T00:44:46.304Z,3.97
2023-03-06T00:47:16.986Z,4.08
2023-03-06T00:49:46.692Z,4.15
2023-03-06T00:52:13.906Z,4.17
2023-03-06T00:54:41.152Z,4.34
2023-03-06T00:57:07.757Z,4.58
2023-03-06T00:59:34.690Z,4.54
2023-03-06T01:02:02.257Z,4.64
2023-03-06T01:04:28.893Z,4.92
2023-03-06T01:06:55.486Z,4.71
2023-03-06T01:09:22.009Z,4.93
2023-03-06T01:11:48.569Z,4.96
2023-03-06T01:14:15.155Z,5.30
2023-03-06T01:16:41.788Z,5.31
2023-03-06T01:19:08.491Z,5.25
2023-03-06T01:21:35.052Z,5.60
2023-03-06T01:24:01.711Z,6.07
2023-03-06T01:26:28.430Z,6.16
2023-03-06T01:28:57.311Z,6.28
2023-03-06T01:31:25.320Z,6.70
2023-03-06T01:33:52.393Z,6.93
2023-03-06T01:36:19.084Z,7.43
2023-03-06T01:38:45.868Z,7.09
2023-03-06T01:41:15.707Z,7.28
2023-03-06T01:43:45.620Z,7.45
2023-03-06T01:46:28.701Z,8.15
2023-03-06T01:49:00.542Z,8.23
2023-03-06T01:51:42.878Z,9.12
2023-03-06T01:54:17.625Z,9.25
2023-03-06T01:56:48.922Z,9.80
2023-03-06T01:59:16.899Z,9.84
2023-03-06T02:01:44.956Z,9.68
2023-03-06T02:04:12.224Z,9.87
2023-03-06T02:06:43.298Z,9.97
2023-03-06T02:09:11.732Z,9.99
2023-03-06T02:11:43.691Z,10.03
2023-03-06T02:14:14.951Z,10.36
2023-03-06T02:16:42.230Z,10.55
2023-03-06T02:19:28.994Z,10.45
2023-03-06T02:21:55.895Z,10.79
2023-03-06T02:24:45.596Z,11.13
2023-03-06T02:27:14.897Z,11.49
2023-03-06T02:29:41.465Z,12.14
2023-03-06T02:32:08.231Z,12.39
2023-03-06T02:34:49.826Z,12.97
2023-03-06T02:37:16.517Z,12.93
2023-03-06T02:39:49.793Z,13.20
2023-03-06T02:42:22.622Z,13.11
2023-03-06T02:44:51.208Z,13.76
2023-03-06T02:47:18.063Z,14.34
2023-03-06T02:49:44.702Z,14.60
2023-03-06T02:52:11.557Z,14.53
2023-03-06T02:54:38.150Z,15.87
2023-03-06T02:57:04.786Z,15.64
2023-03-06T02:59:31.382Z,16.38
2023-03-06T03:01:57.984Z,16.88
2023-03-06T03:04:24.737Z,17.05
2023-03-06T03:06:51.359Z,17.84
2023-03-06T03:09:18.017Z,17.86
2023-03-06T03:11:44.595Z,17.55
2023-03-06T03:14:11.156Z,17.13
2023-03-06T03:16:39.200Z,16.56
2023-03-06T03:19:05.917Z,16.38
2023-03-06T03:21:32.542Z,17.45
2023-03-06T03:24:03.601Z,16.79
2023-03-06T03:26:30.179Z,16.76
2023-03-06T03:28:56.794Z,16.84
2023-03-06T03:31:23.454Z,17.61
2023-03-06T03:33:50.049Z,16.91
2023-03-06T03:36:16.684Z,16.49
2023-03-06T03:38:43.196Z,15.52
2023-03-06T03:41:09.768Z,16.50
2023-03-06T03:43:36.339Z,16.74
2023-03-06T03:46:03.054Z,16.89
2023-03-06T03:48:29.688Z,15.69
2023-03-06T03:51:04.444Z,16.28
2023-03-06T03:53:31.095Z,15.40
2023-03-06T03:55:57.691Z,15.79
2023-03-06T03:58:24.328Z,16.02
2023-03-06T04:00:50.944Z,15.88
2023-03-06T04:03:17.661Z,15.67
2023-03-06T04:05:44.244Z,15.39
2023-03-06T04:08:10.851Z,14.50
2023-03-06T04:10:39.398Z,14.09
2023-03-06T04:13:09.582Z,14.31
2023-03-06T04:15:36.972Z,14.37
2023-03-06T04:18:03.670Z,13.77
2023-03-06T04:20:30.547Z,14.27
2023-03-06T04:22:57.187Z,13.79
2023-03-06T04:25:23.858Z,13.89
2023-03-06T04:27:50.491Z,14.33
2023-03-06T04:30:17.204Z,13.64
2023-03-06T04:32:43.870Z,13.73
2023-03-06T04:35:10.732Z,13.74
2023-03-06T04:37:37.328Z,13.57
2023-03-06T04:40:04.316Z,13.13
2023-03-06T04:42:31.262Z,12.72
2023-03-06T04:44:57.826Z,12.75
2023-03-06T04:47:24.491Z,12.49
2023-03-06T04:49:51.091Z,12.37
2023-03-06T04:52:17.705Z,12.30
2023-03-06T04:54:46.012Z,12.46
2023-03-06T04:57:14.128Z,11.72
2023-03-06T04:59:40.743Z,10.74
2023-03-06T05:02:07.534Z,10.46
2023-03-06T05:04:34.383Z,10.07
2023-03-06T05:07:00.974Z,9.31
2023-03-06T05:09:27.664Z,9.14
2023-03-06T05:11:54.258Z,8.73
2023-03-06T05:14:21.935Z,8.05
2023-03-06T05:16:48.554Z,7.78
2023-03-06T05:19:15.416Z,7.70
2023-03-06T05:21:42.159Z,7.15
2023-03-06T05:24:09.732Z,6.72
2023-03-06T05:26:36.326Z,6.74
2023-03-06T05:29:02.972Z,6.24
2023-03-06T05:31:29.513Z,5.98
2023-03-06T05:33:57.524Z,6.11
2023-03-06T05:36:24.707Z,5.64
2023-03-06T05:38:51.357Z,5.84
2023-03-06T05:41:18.012Z,5.43
2023-03-06T05:43:44.643Z,5.14
2023-03-06T05:46:11.924Z,5.19
2023-03-06T05:48:38.636Z,5.26
2023-03-06T05:51:05.754Z,5.12
2023-03-06T05:53:32.798Z,4.97
2023-03-06T05:56:03.907Z,4.90
2023-03-06T05:58:32.551Z,4.58
2023-03-06T06:00:59.819Z,4.74
2023-03-06T06:03:26.998Z,4.55
2023-03-06T06:05:53.576Z,4.58
2023-03-06T06:08:20.642Z,4.48
2023-03-06T06:10:47.272Z,4.93
2023-03-06T06:13:13.863Z,4.24
2023-03-06T06:15:40.474Z,4.56
2023-03-06T06:18:07.043Z,4.06
2023-03-06T06:20:33.655Z,4.12
2023-03-06T06:23:00.254Z,4.00
2023-03-06T06:25:26.841Z,4.10
2023-03-06T06:27:55.334Z,4.00
2023-03-06T06:30:22.688Z,3.58
2023-03-06T06:32:49.693Z,3.38
2023-03-06T06:35:16.405Z,3.39
2023-03-06T06:37:42.903Z,3.24
2023-03-06T06:40:10.186Z,2.62
2023-03-06T06:42:39.822Z,2.58
2023-03-06T06:45:08.338Z,2.46
2023-03-06T06:47:34.977Z,2.16
2023-03-06T06:50:01.644Z,2.10
2023-03-06T06:52:28.374Z,2.05
2023-03-06T06:54:55.132Z,1.96
2023-03-06T06:57:21.898Z,1.91
2023-03-06T06:59:48.444Z,2.00
2023-03-06T07:02:16.418Z,1.82
2023-03-06T07:05:00.297Z,1.91
2023-03-06T07:07:31.104Z,2.02
2023-03-06T07:09:57.697Z,2.13
2023-03-06T07:12:24.312Z,1.85
2023-03-06T07:14:50.900Z,1.92
2023-03-06T07:17:17.490Z,1.85
2023-03-06T07:19:44.013Z,1.86
2023-03-06T07:22:10.585Z,2.06
2023-03-06T07:24:37.105Z,1.92
2023-03-06T07:27:04.224Z,1.72
2023-03-06T07:29:32.843Z,1.67
2023-03-06T07:31:59.527Z,1.70
2023-03-06T07:34:26.143Z,1.94
2023-03-06T07:36:52.709Z,1.70
2023-03-06T07:39:19.317Z,1.67
2023-03-06T07:41:45.990Z,1.63
2023-03-06T07:44:12.617Z,1.50
2023-03-06T07:46:39.250Z,1.50
2023-03-06T07:49:05.835Z,1.49
2023-03-06T07:51:32.419Z,1.47
2023-03-06T07:53:59.083Z,1.57
2023-03-06T07:56:25.649Z,1.26
2023-03-06T07:58:52.319Z,1.39
2023-03-06T08:01:23.402Z,1.55
2023-03-06T08:03:50.505Z,1.40
2023-03-06T08:06:20.729Z,1.28
2023-03-06T08:08:49.289Z,1.39
2023-03-06T08:11:17.772Z,1.32
2023-03-06T08:13:44.419Z,1.80
2023-03-06T08:16:11.537Z,1.45
2023-03-06T08:18:39.652Z,1.33
2023-03-06T08:21:13.125Z,1.26
2023-03-06T08:23:40.397Z,1.14
2023-03-06T08:26:11.004Z,1.02
2023-03-06T08:28:37.791Z,1.02
2023-03-06T08:31:12.867Z,0.92
2023-03-06T08:33:40.168Z,0.92
2023-03-06T08:36:06.903Z,0.92
2023-03-06T08:38:33.473Z,0.82
2023-03-06T08:41:00.029Z,0.94
2023-03-06T08:43:26.737Z,0.99
2023-03-06T08:45:56.225Z,0.97
2023-03-06T08:48:23.134Z,0.92
2023-03-06T08:50:49.798Z,0.97
2023-03-06T08:53:17.588Z,1.06
2023-03-06T08:55:47.231Z,0.92
2023-03-06T08:58:13.734Z,0.85
2023-03-06T09:00:40.479Z,0.97
2023-03-06T09:03:07.101Z,0.92
2023-03-06T09:05:34.041Z,0.93
2023-03-06T09:08:00.911Z,1.10
2023-03-06T09:10:28.483Z,0.95
2023-03-06T09:12:55.467Z,0.76
2023-03-06T09:15:24.715Z,0.78
2023-03-06T09:17:52.373Z,0.80
2023-03-06T09:20:19.067Z,0.67
2023-03-06T09:22:46.057Z,0.76
2023-03-06T09:25:14.417Z,0.76
2023-03-06T09:27:41.261Z,0.96
2023-03-06T09:30:09.105Z,0.94
2023-03-06T09:32:35.731Z,0.95
2023-03-06T09:35:02.363Z,0.88
2023-03-06T09:37:29.047Z,0.80
2023-03-06T09:39:55.629Z,0.84
2023-03-06T09:42:23.635Z,0.93
2023-03-06T09:45:02.230Z,0.92
2023-03-06T09:47:53.028Z,0.95
2023-03-06T09:50:24.635Z,0.73
2023-03-06T09:53:15.257Z,0.92
2023-03-06T09:55:46.660Z,0.87
2023-03-06T09:58:21.890Z,0.91
2023-03-06T10:01:16.264Z,0.87
2023-03-06T10:04:11.457Z,0.95
2023-03-06T10:06:55.340Z,0.89
2023-03-06T10:09:41.923Z,0.81
2023-03-06T10:12:25.497Z,0.78
2023-03-06T10:15:22.366Z,0.81
2023-03-06T10:17:49.124Z,0.86
2023-03-06T10:20:29.278Z,0.81
2023-03-06T10:23:24.073Z,0.93
2023-03-06T10:26:02.344Z,0.74
2023-03-06T10:28:41.269Z,0.75
2023-03-06T10:31:20.582Z,0.89
2023-03-06T10:33:57.928Z,0.76
2023-03-06T10:36:29.642Z,0.57
2023-03-06T10:38:58.568Z,0.76
2023-03-06T10:41:31.689Z,0.78
2023-03-06T10:44:01.061Z,0.82
2023-03-06T10:46:30.780Z,0.77
2023-03-06T10:49:00.628Z,0.68
2023-03-06T10:51:29.397Z,0.74
2023-03-06T10:54:00.113Z,0.80
2023-03-06T10:56:39.285Z,0.61
2023-03-06T10:59:17.156Z,0.81
2023-03-06T11:01:47.174Z,2.24
2023-03-06T11:04:25.175Z,1.98
2023-03-06T11:07:09.019Z,0.88
2023-03-06T11:09:36.182Z,0.84
2023-03-06T11:12:22.592Z,0.76
2023-03-06T11:15:14.156Z,1.01
2023-03-06T11:17:54.778Z,1.26
2023-03-06T11:20:53.310Z,0.85
2023-03-06T11:23:37.459Z,0.67
2023-03-06T11:26:16.464Z,0.68
2023-03-06T11:28:52.017Z,0.68
2023-03-06T11:31:32.192Z,0.81
2023-03-06T11:34:14.208Z,0.60
2023-03-06T11:36:58.432Z,0.62
2023-03-06T11:39:36.901Z,0.65
2023-03-06T11:42:16.981Z,0.60
2023-03-06T11:45:00.278Z,0.66
2023-03-06T11:47:34.980Z,0.70
2023-03-06T11:50:07.464Z,1.00
2023-03-06T11:52:49.031Z,1.16
2023-03-06T11:55:28.699Z,1.39
2023-03-06T11:58:18.074Z,1.43
2023-03-06T12:00:57.495Z,1.57
2023-03-06T12:03:56.891Z,1.51
2023-03-06T12:07:20.772Z,1.53
2023-03-06T12:09:55.086Z,1.43
2023-03-06T12:12:46.479Z,1.41
2023-03-06T12:15:23.388Z,2.06
2023-03-06T12:18:08.399Z,2.13
2023-03-06T12:20:54.154Z,2.15
2023-03-06T12:23:42.328Z,2.23
2023-03-06T12:26:34.462Z,2.30
2023-03-06T12:29:38.232Z,2.10
2023-03-06T12:32:14.853Z,2.05
2023-03-06T12:34:58.727Z,2.33
2023-03-06T12:37:48.613Z,2.48
2023-03-06T12:40:45.765Z,2.52
2023-03-06T12:43:27.531Z,2.65
2023-03-06T12:46:05.258Z,2.75
2023-03-06T12:48:36.031Z,2.90
2023-03-06T12:51:06.670Z,2.72
2023-03-06T12:53:35.939Z,2.54
2023-03-06T12:56:04.127Z,2.57
2023-03-06T12:58:30.582Z,2.74
2023-03-06T13:01:37.518Z,2.62
2023-03-06T13:04:30.512Z,3.72
2023-03-06T13:07:18.978Z,2.80
2023-03-06T13:10:12.921Z,2.74
2023-03-06T13:12:58.085Z,2.79
2023-03-06T13:15:36.373Z,3.06
2023-03-06T13:18:22.834Z,2.94
2023-03-06T13:20:54.409Z,3.52
2023-03-06T13:23:32.735Z,4.06
2023-03-06T13:26:04.265Z,4.73
2023-03-06T13:28:40.325Z,4.93
2023-03-06T13:31:18.137Z,4.64
2023-03-06T13:33:58.932Z,5.39
2023-03-06T13:36:39.018Z,6.33
2023-03-06T13:39:10.878Z,7.46
2023-03-06T13:41:42.557Z,7.50
2023-03-06T13:44:24.475Z,7.64
2023-03-06T13:47:01.594Z,7.44
2023-03-06T13:49:29.840Z,8.38
2023-03-06T13:52:21.098Z,9.21
2023-03-06T13:55:13.202Z,10.49
2023-03-06T13:57:48.875Z,10.28
2023-03-06T14:00:33.608Z,10.78
2023-03-06T14:03:03.229Z,11.48
2023-03-06T14:05:50.782Z,12.01
2023-03-06T14:08:28.464Z,11.96
2023-03-06T14:11:05.723Z,12.55
2023-03-06T14:13:47.391Z,12.73
2023-03-06T14:16:22.313Z,13.33
2023-03-06T14:18:52.771Z,12.34
2023-03-06T14:21:31.912Z,12.31
2023-03-06T14:24:04.375Z,12.43
2023-03-06T14:26:41.495Z,12.78
2023-03-06T14:29:21.495Z,11.91
2023-03-06T14:31:53.933Z,10.97
2023-03-06T14:34:28.466Z,10.35
2023-03-06T14:36:59.915Z,10.19
2023-03-06T14:39:26.814Z,8.85
2023-03-06T14:42:06.257Z,8.51
2023-03-06T14:44:32.812Z,8.74
2023-03-06T14:47:17.819Z,8.25
2023-03-06T14:49:44.329Z,8.62
2023-03-06T14:52:20.427Z,8.78
2023-03-06T14:54:52.073Z,7.35
2023-03-06T14:57:23.275Z,7.42
2023-03-06T14:59:58.848Z,7.44
2023-03-06T15:02:32.735Z,7.01
2023-03-06T15:05:13.396Z,6.94
2023-03-06T15:07:42.681Z,6.99
2023-03-06T15:10:30.628Z,7.48
2023-03-06T15:13:18.560Z,7.59
2023-03-06T15:16:12.697Z,7.86
2023-03-06T15:18:59.074Z,7.22
2023-03-06T15:21:28.603Z,6.67
2023-03-06T15:23:57.211Z,6.56
2023-03-06T15:26:31.142Z,6.40
2023-03-06T15:29:24.249Z,7.01
2023-03-06T15:31:51.115Z,7.37
2023-03-06T15:34:23.710Z,8.00
2023-03-06T15:36:56.099Z,7.96
2023-03-06T15:39:35.667Z,7.78
2023-03-06T15:42:16.027Z,7.40
2023-03-06T15:44:42.730Z,7.27
2023-03-06T15:47:11.742Z,7.26
2023-03-06T15:49:39.531Z,7.21
2023-03-06T15:52:07.637Z,7.24
2023-03-06T15:54:35.058Z,7.24
2023-03-06T15:57:05.473Z,8.32
2023-03-06T15:59:43.004Z,9.11
2023-03-06T16:02:21.600Z,9.94
2023-03-06T16:04:49.291Z,10.62
2023-03-06T16:07:16.597Z,10.37
2023-03-06T16:09:44.036Z,11.17
2023-03-06T16:12:17.518Z,12.01
2023-03-06T16:14:47.389Z,12.85
2023-03-06T16:17:15.340Z,14.34
2023-03-06T16:19:43.024Z,15.80
2023-03-06T16:22:09.837Z,16.12
2023-03-06T16:24:37.126Z,16.17
2023-03-06T16:27:04.654Z,16.35
2023-03-06T16:29:31.634Z,17.32
2023-03-06T16:31:58.909Z,17.71
2023-03-06T16:34:25.473Z,17.53
2023-03-06T16:36:52.484Z,18.36
2023-03-06T16:39:22.577Z,19.16
2023-03-06T16:41:52.102Z,18.37
2023-03-06T16:44:19.714Z,19.09
2023-03-06T16:46:48.474Z,19.89
2023-03-06T16:49:23.217Z,19.69
2023-03-06T16:51:50.860Z,20.44
2023-03-06T16:54:17.492Z,20.47
2023-03-06T16:56:44.909Z,21.73
2023-03-06T16:59:12.458Z,20.64
2023-03-06T17:01:43.014Z,19.73
2023-03-06T17:04:10.045Z,20.47
2023-03-06T17:06:36.807Z,20.17
2023-03-06T17:09:04.001Z,20.53
2023-03-06T17:11:30.520Z,20.19
2023-03-06T17:13:57.100Z,21.24
2023-03-06T17:16:23.685Z,21.31
2023-03-06T17:18:50.545Z,20.39
2023-03-06T17:21:17.173Z,20.68
2023-03-06T17:23:44.681Z,21.15
2023-03-06T17:26:18.830Z,21.35
2023-03-06T17:28:46.568Z,20.41
2023-03-06T17:31:17.355Z,21.33
2023-03-06T17:33:45.089Z,21.03
2023-03-06T17:36:14.264Z,21.26
2023-03-06T17:38:42.129Z,20.32
2023-03-06T17:41:10.920Z,20.14
2023-03-06T17:43:38.531Z,20.27
2023-03-06T17:46:11.159Z,20.53
2023-03-06T17:48:39.070Z,21.06
2023-03-06T17:51:07.401Z,20.93
2023-03-06T17:53:34.369Z,21.21
2023-03-06T17:56:04.150Z,20.68
2023-03-06T17:58:30.703Z,20.27
2023-03-06T18:00:57.224Z,21.68
2023-03-06T18:03:23.813Z,20.73
2023-03-06T18:06:04.591Z,19.66
2023-03-06T18:08:32.203Z,21.53
2023-03-06T18:11:00.310Z,20.83
2023-03-06T18:13:26.926Z,21.34
2023-03-06T18:15:53.559Z,21.46
2023-03-06T18:18:20.388Z,21.62
2023-03-06T18:20:47.379Z,21.62
2023-03-06T18:23:14.062Z,21.96
2023-03-06T18:25:41.383Z,22.07
2023-03-06T18:28:07.970Z,22.37
2023-03-06T18:30:36.026Z,22.43
2023-03-06T18:33:02.645Z,23.82
2023-03-06T18:35:29.668Z,23.14
2023-03-06T18:37:56.272Z,24.15
2023-03-06T18:40:24.756Z,24.79
2023-03-06T18:42:54.676Z,24.78
2023-03-06T18:45:21.295Z,24.25
2023-03-06T18:47:47.866Z,24.77
2023-03-06T18:50:17.404Z,24.15
2023-03-06T18:52:44.693Z,23.51
2023-03-06T18:55:12.301Z,23.95
2023-03-06T18:57:39.776Z,23.89
2023-03-06T19:00:07.458Z,24.77
2023-03-06T19:02:33.982Z,24.74
2023-03-06T19:05:00.485Z,23.97
2023-03-06T19:07:27.311Z,23.74
2023-03-06T19:09:53.909Z,23.57
2023-03-06T19:12:20.478Z,23.31
2023-03-06T19:14:47.085Z,23.53
2023-03-06T19:17:13.693Z,24.32
2023-03-06T19:19:40.280Z,24.63
2023-03-06T19:22:06.832Z,24.78
2023-03-06T19:24:33.948Z,26.29
2023-03-06T19:27:00.498Z,26.41
2023-03-06T19:29:27.443Z,25.83
2023-03-06T19:31:57.046Z,25.86
2023-03-06T19:34:23.665Z,26.40
2023-03-06T19:36:50.789Z,25.15
2023-03-06T19:39:17.380Z,25.88
2023-03-06T19:41:46.406Z,26.82
2023-03-06T19:44:14.540Z,27.10
2023-03-06T19:46:41.102Z,27.03
2023-03-06T19:49:11.991Z,28.02
2023-03-06T19:51:38.652Z,26.77
2023-03-06T19:54:05.314Z,26.30
2023-03-06T19:56:33.532Z,27.45
2023-03-06T19:59:00.239Z,27.93
2023-03-06T20:01:28.205Z,29.42
2023-03-06T20:03:59.855Z,27.52
2023-03-06T20:06:33.614Z,27.77
2023-03-06T20:09:07.382Z,28.23
2023-03-06T20:11:34.628Z,28.58
2023-03-06T20:14:03.679Z,27.65
2023-03-06T20:16:31.238Z,28.68
2023-03-06T20:19:00.430Z,27.88
2023-03-06T20:21:29.623Z,28.93
2023-03-06T20:23:57.989Z,28.49
2023-03-06T20:26:27.372Z,28.07
2023-03-06T20:28:54.782Z,29.50
2023-03-06T20:31:24.373Z,29.25
2023-03-06T20:33:53.395Z,28.93
2023-03-06T20:36:27.882Z,28.67
2023-03-06T20:38:56.382Z,28.65
2023-03-06T20:41:26.395Z,28.95
2023-03-06T20:43:54.080Z,28.89
2023-03-06T20:46:23.013Z,28.59
2023-03-06T20:48:52.693Z,28.49
2023-03-06T20:51:22.155Z,27.52
2023-03-06T20:53:51.148Z,27.60
2023-03-06T20:56:20.692Z,26.95
2023-03-06T20:58:47.238Z,26.40
2023-03-06T21:01:22.400Z,27.47
2023-03-06T21:03:49.132Z,27.41
2023-03-06T21:06:16.640Z,27.05
2023-03-06T21:08:43.295Z,26.78
2023-03-06T21:11:09.865Z,26.52
2023-03-06T21:13:36.451Z,25.79
2023-03-06T21:16:11.728Z,25.69
2023-03-06T21:18:39.738Z,26.02
2023-03-06T21:21:12.244Z,26.59
2023-03-06T21:23:39.538Z,25.96
2023-03-06T21:26:06.254Z,26.20
2023-03-06T21:28:33.335Z,25.25
2023-03-06T21:31:01.606Z,25.15
2023-03-06T21:33:28.644Z,24.94
2023-03-06T21:35:55.386Z,24.64
2023-03-06T21:38:21.929Z,24.88
2023-03-06T21:40:48.504Z,24.85
2023-03-06T21:43:17.400Z,23.91
2023-03-06T21:45:45.844Z,22.66
2023-03-06T21:48:13.634Z,23.02
2023-03-06T21:50:41.170Z,23.41
2023-03-06T21:53:08.865Z,22.81
2023-03-06T21:55:40.472Z,22.31
2023-03-06T21:58:07.578Z,22.47
2023-03-06T22:00:37.342Z,21.85
2023-03-06T22:03:04.908Z,21.72
2023-03-06T22:05:34.611Z,20.55
2023-03-06T22:08:01.349Z,19.20
2023-03-06T22:10:28.465Z,17.96
2023-03-06T22:12:55.061Z,16.77
2023-03-06T22:15:21.821Z,17.06
2023-03-06T22:17:48.557Z,16.17
2023-03-06T22:20:15.404Z,14.50
2023-03-06T22:22:42.318Z,14.25
2023-03-06T22:25:11.780Z,13.72
2023-03-06T22:27:38.841Z,13.59
2023-03-06T22:30:05.841Z,13.12
2023-03-06T22:32:32.535Z,12.53
2023-03-06T22:34:59.049Z,11.36
2023-03-06T22:37:25.592Z,10.79
2023-03-06T22:39:52.181Z,10.05
2023-03-06T22:42:18.737Z,10.26
2023-03-06T22:44:45.289Z,9.39
2023-03-06T22:47:11.844Z,9.59
2023-03-06T22:49:38.444Z,9.46
2023-03-06T22:52:05.091Z,9.08
2023-03-06T22:54:31.630Z,9.05
2023-03-06T22:56:58.186Z,8.74
2023-03-06T22:59:24.691Z,8.40
2023-03-06T23:01:51.221Z,8.59
2023-03-06T23:04:17.762Z,8.23
2023-03-06T23:06:45.644Z,7.81
2023-03-06T23:09:16.024Z,8.17
2023-03-06T23:11:42.646Z,8.40
2023-03-06T23:14:12.455Z,8.01
2023-03-06T23:16:39.786Z,7.33
2023-03-06T23:19:06.869Z,7.47
2023-03-06T23:21:34.484Z,7.07
2023-03-06T23:24:01.857Z,7.16
2023-03-06T23:26:30.374Z,7.09
2023-03-06T23:28:57.777Z,6.96
2023-03-06T23:31:30.911Z,6.48
2023-03-06T23:33:59.902Z,6.39
2023-03-06T23:36:27.090Z,6.60
2023-03-06T23:38:54.014Z,6.32
2023-03-06T23:41:22.069Z,5.99
2023-03-06T23:43:50.085Z,6.23
2023-03-06T23:46:17.687Z,6.77
2023-03-06T23:48:44.383Z,6.98
2023-03-06T23:51:17.726Z,7.73
2023-03-06T23:53:46.028Z,8.27
2023-03-06T23:56:13.345Z,8.04
2023-03-06T23:58:40.658Z,8.25
